Kezdőlap
METAR-TAF:

METAR-TAF

Repülőterek :

Lawrence Municipal Airport

Lawrence, Massachusetts, Amerikai Egyesült Államok

földrajzi szélesség: 42-42-47N, földrajzi hosszúság: 071-07-33W, magasság: 45 m

Jelenlegi meteorológiai megfigyelések

A jelentés 7 perccel ezelõtt készült, 23:54 UTC
Keleti szél 3 kt
Hőmérséklet -8°C
Páratartalom 79%
Légköri nyomás 1021 hPa
Látótávolság: 1.2 km
enyhe havazás, Párásság

METAR: KLWM 182354Z 10003KT 3/4SM -SN BR VV011 M08/M11 A3015 RMK AO2 PRESFR SLP211 P0005 60007 T10831106 11067 21083 58056

Idő: 19:01 (00:01 UTC)


TAF: hiányzik

Meteorológiai megfigyelések és előrejelzések több, mint 4000 repülőtéren (METAR és TAF jelentéseket).

A térképen piros és sárga pontok jelzik az elérhető meteorológiai állomásokat.

Mozgassa az egeret a pont fölött, hogy megjelenjen az állomás neve.

Azután kattintson az időjárási megfigyelések és előrejelzések megtekintéséhez.

A térkép megváltoztatása: kattintson a fekete keresztel jelölt zöld gombra ráközelítéshez, a vonallal jelölt zöld gombra távolításhoz, vagy a zöld nyilakra a szomszédos térképek eléréséhez.


METAR-TAF: